createdAt,value
2019-05-20T00:00:29.622Z,25.75
2019-05-20T00:02:59.097Z,26.87
2019-05-20T00:05:28.573Z,28.38
2019-05-20T00:07:58.050Z,25.70
2019-05-20T00:10:27.578Z,26.12
2019-05-20T00:12:57.059Z,27.98
2019-05-20T00:15:26.515Z,31.62
2019-05-20T00:17:55.994Z,31.80
2019-05-20T00:20:25.454Z,30.68
2019-05-20T00:22:54.939Z,26.02
2019-05-20T00:25:24.398Z,30.55
2019-05-20T00:27:54.942Z,32.33
2019-05-20T00:30:24.402Z,29.48
2019-05-20T00:32:53.955Z,31.95
2019-05-20T00:35:23.485Z,30.25
2019-05-20T00:37:52.970Z,30.02
2019-05-20T00:40:22.425Z,31.62
2019-05-20T00:42:51.908Z,31.85
2019-05-20T00:45:21.366Z,30.32
2019-05-20T00:47:50.851Z,29.72
2019-05-20T00:50:20.331Z,26.05
2019-05-20T00:52:51.094Z,27.55
2019-05-20T00:55:26.493Z,28.87
2019-05-20T00:57:56.011Z,31.68
2019-05-20T01:00:25.911Z,30.05
2019-05-20T01:02:57.223Z,29.90
2019-05-20T01:05:26.594Z,28.27
2019-05-20T01:07:56.192Z,29.65
2019-05-20T01:10:26.811Z,29.07
2019-05-20T01:12:56.332Z,28.52
2019-05-20T01:15:26.457Z,28.57
2019-05-20T01:17:55.907Z,32.10
2019-05-20T01:20:25.457Z,28.85
2019-05-20T01:22:54.919Z,31.27
2019-05-20T01:25:24.462Z,33.63
2019-05-20T01:27:53.943Z,26.35
2019-05-20T01:30:23.477Z,33.55
2019-05-20T01:32:52.925Z,32.70
2019-05-20T01:35:22.474Z,33.75
2019-05-20T01:37:51.937Z,31.23
2019-05-20T01:40:21.479Z,32.10
2019-05-20T01:42:50.946Z,31.90
2019-05-20T01:45:20.510Z,30.90
2019-05-20T01:47:49.968Z,30.97
2019-05-20T01:50:20.519Z,30.35
2019-05-20T01:52:50.041Z,33.65
2019-05-20T01:55:19.514Z,31.33
2019-05-20T01:57:48.969Z,27.37
2019-05-20T02:00:18.586Z,28.60
2019-05-20T02:02:48.030Z,29.18
2019-05-20T02:05:17.573Z,34.25
2019-05-20T02:07:47.034Z,29.82
2019-05-20T02:10:16.750Z,31.20
2019-05-20T02:12:46.202Z,29.82
2019-05-20T02:15:30.797Z,33.00
2019-05-20T02:18:00.254Z,30.25
2019-05-20T02:20:29.816Z,29.00
2019-05-20T02:23:17.301Z,32.00
2019-05-20T02:25:48.513Z,28.55
2019-05-20T02:28:19.123Z,29.98
2019-05-20T02:30:48.643Z,27.50
2019-05-20T02:33:18.174Z,28.98
2019-05-20T02:35:47.650Z,34.73
2019-05-20T02:38:17.109Z,27.52
2019-05-20T02:40:46.584Z,31.05
2019-05-20T02:43:16.110Z,32.00
2019-05-20T02:45:45.591Z,36.30
2019-05-20T02:48:15.042Z,38.10
2019-05-20T02:50:44.521Z,34.03
2019-05-20T02:53:14.051Z,35.95
2019-05-20T02:55:43.803Z,35.92
2019-05-20T02:58:13.259Z,30.62
2019-05-20T03:00:42.797Z,34.38
2019-05-20T03:03:12.250Z,33.08
2019-05-20T03:05:41.742Z,33.18
2019-05-20T03:08:11.207Z,32.23
2019-05-20T03:10:40.749Z,29.77
2019-05-20T03:13:10.265Z,31.17
2019-05-20T03:15:40.883Z,32.23
2019-05-20T03:18:10.410Z,30.50
2019-05-20T03:20:39.890Z,29.52
2019-05-20T03:23:09.421Z,29.63
2019-05-20T03:25:38.962Z,28.55
2019-05-20T03:28:09.584Z,29.65
2019-05-20T03:30:39.142Z,30.88
2019-05-20T03:33:08.597Z,26.95
2019-05-20T03:35:38.123Z,27.27
2019-05-20T03:38:07.624Z,26.82
2019-05-20T03:40:37.117Z,27.70
2019-05-20T03:43:06.558Z,30.65
2019-05-20T03:45:36.038Z,27.93
2019-05-20T03:48:05.556Z,28.87
2019-05-20T03:50:35.118Z,28.20
2019-05-20T03:53:04.723Z,25.10
2019-05-20T03:55:34.183Z,29.52
2019-05-20T03:58:03.698Z,27.60
2019-05-20T04:00:46.761Z,28.07
2019-05-20T04:03:16.481Z,32.20
2019-05-20T04:05:46.375Z,28.75
2019-05-20T04:08:15.894Z,26.95
2019-05-20T04:10:45.391Z,26.68
2019-05-20T04:13:14.832Z,28.12
2019-05-20T04:15:44.300Z,30.15
2019-05-20T04:18:13.786Z,26.33
2019-05-20T04:20:43.313Z,29.75
2019-05-20T04:23:12.862Z,30.70
2019-05-20T04:25:42.321Z,35.85
2019-05-20T04:28:11.798Z,26.95
2019-05-20T04:30:41.514Z,31.57
2019-05-20T04:33:10.996Z,28.60
2019-05-20T04:35:40.518Z,29.07
2019-05-20T04:38:10.065Z,27.85
2019-05-20T04:40:39.868Z,28.45
2019-05-20T04:43:09.335Z,26.93
2019-05-20T04:45:38.781Z,26.70
2019-05-20T04:48:08.262Z,25.55
2019-05-20T04:50:37.713Z,31.40
2019-05-20T04:53:07.189Z,27.42
2019-05-20T04:55:36.641Z,29.40
2019-05-20T04:58:06.118Z,32.00
2019-05-20T05:00:53.457Z,29.42
2019-05-20T05:03:23.278Z,32.35
2019-05-20T05:05:53.283Z,34.13
2019-05-20T05:10:51.973Z,38.23
2019-05-20T05:13:22.000Z,37.73
2019-05-20T05:18:20.569Z,40.00
2019-05-20T05:20:50.265Z,39.58
2019-05-20T05:23:20.978Z,42.05
2019-05-20T05:25:50.429Z,45.98
2019-05-20T05:28:21.214Z,41.23
2019-05-20T05:30:50.741Z,39.92
2019-05-20T05:33:20.217Z,43.50
2019-05-20T05:35:53.140Z,40.83
2019-05-20T05:38:21.504Z,41.95
2019-05-20T05:40:50.958Z,41.37
2019-05-20T05:43:20.443Z,42.70
2019-05-20T05:45:49.898Z,41.10
2019-05-20T05:48:19.365Z,40.23
2019-05-20T05:50:48.818Z,47.35
2019-05-20T05:53:18.294Z,40.00
2019-05-20T05:55:47.749Z,43.48
2019-05-20T05:58:17.240Z,45.58
2019-05-20T06:00:46.695Z,50.50
2019-05-20T06:03:16.167Z,42.33
2019-05-20T06:05:45.621Z,44.15
2019-05-20T06:08:15.102Z,39.67
2019-05-20T06:10:44.553Z,41.68
2019-05-20T06:13:14.034Z,43.08
2019-05-20T06:15:43.489Z,42.20
2019-05-20T06:18:12.969Z,39.88
2019-05-20T06:20:42.490Z,38.02
2019-05-20T06:23:11.978Z,35.00
2019-05-20T06:25:41.434Z,38.10
2019-05-20T06:28:10.921Z,35.40
2019-05-20T06:30:42.229Z,35.48
2019-05-20T06:33:11.772Z,35.52
2019-05-20T06:35:41.565Z,36.05
2019-05-20T06:38:12.857Z,37.93
2019-05-20T06:40:42.323Z,38.13
2019-05-20T06:43:11.796Z,34.58
2019-05-20T06:45:41.249Z,37.15
2019-05-20T06:48:11.798Z,36.42
2019-05-20T06:50:41.262Z,41.10
2019-05-20T06:53:10.749Z,38.38
2019-05-20T06:55:40.269Z,40.38
2019-05-20T06:58:09.720Z,38.38
2019-05-20T07:00:39.845Z,37.40
2019-05-20T07:03:09.499Z,36.70
2019-05-20T07:05:38.986Z,37.35
2019-05-20T07:08:08.433Z,39.95
2019-05-20T07:10:37.914Z,34.60
2019-05-20T07:13:07.440Z,35.23
2019-05-20T07:15:36.913Z,34.65
2019-05-20T07:18:06.439Z,32.73
2019-05-20T07:20:35.929Z,31.02
2019-05-20T07:23:05.445Z,33.05
2019-05-20T07:25:38.093Z,31.80
2019-05-20T07:28:07.734Z,28.00
2019-05-20T07:30:37.215Z,30.10
2019-05-20T07:33:06.680Z,31.07
2019-05-20T07:35:36.142Z,27.98
2019-05-20T07:38:06.734Z,26.90
2019-05-20T07:40:36.216Z,25.72
2019-05-20T07:43:06.133Z,25.37
2019-05-20T07:45:36.869Z,27.42
2019-05-20T07:48:06.652Z,28.55
2019-05-20T07:50:39.829Z,26.87
2019-05-20T07:53:11.826Z,25.17
2019-05-20T07:55:47.127Z,24.30
2019-05-20T07:58:18.594Z,25.20
2019-05-20T08:00:48.207Z,23.15
2019-05-20T08:03:17.805Z,22.98
2019-05-20T08:05:47.357Z,24.35
2019-05-20T08:08:16.805Z,25.23
2019-05-20T08:10:46.466Z,24.43
2019-05-20T08:13:15.901Z,27.37
2019-05-20T08:15:45.386Z,27.07
2019-05-20T08:18:14.910Z,28.23
2019-05-20T08:20:44.529Z,25.90
2019-05-20T08:23:14.075Z,27.02
2019-05-20T08:25:43.571Z,27.58
2019-05-20T08:28:13.005Z,24.87
2019-05-20T08:30:42.501Z,27.90
2019-05-20T08:33:12.001Z,26.37
2019-05-20T08:35:41.624Z,26.45
2019-05-20T08:38:11.076Z,26.23
2019-05-20T08:40:42.123Z,26.12
2019-05-20T08:43:11.745Z,25.65
2019-05-20T08:45:41.366Z,23.98
2019-05-20T08:48:10.892Z,24.60
2019-05-20T08:50:40.377Z,25.27
2019-05-20T08:53:09.839Z,24.02
2019-05-20T08:55:39.335Z,23.62
2019-05-20T08:58:08.807Z,21.17
2019-05-20T09:00:38.332Z,20.70
2019-05-20T09:03:07.860Z,21.70
2019-05-20T09:05:37.337Z,20.68
2019-05-20T09:08:06.858Z,23.10
2019-05-20T09:10:39.430Z,22.37
2019-05-20T09:13:07.486Z,19.62
2019-05-20T09:15:36.986Z,23.15
2019-05-20T09:18:06.503Z,19.92
2019-05-20T09:20:35.978Z,19.00
2019-05-20T09:23:05.430Z,19.87
2019-05-20T09:25:35.059Z,23.10
2019-05-20T09:28:04.870Z,20.00
2019-05-20T09:30:34.558Z,23.45
2019-05-20T09:33:04.153Z,21.75
2019-05-20T09:35:33.693Z,21.93
2019-05-20T09:38:18.489Z,22.15
2019-05-20T09:40:37.331Z,20.92
2019-05-20T09:43:07.218Z,22.35
2019-05-20T09:45:37.903Z,22.70
2019-05-20T09:48:09.771Z,21.00
2019-05-20T09:50:39.726Z,24.63
2019-05-20T09:53:09.431Z,23.47
2019-05-20T09:55:39.124Z,27.55
2019-05-20T09:58:08.731Z,23.47
2019-05-20T10:00:38.322Z,23.98
2019-05-20T10:03:07.987Z,23.98
2019-05-20T10:05:37.952Z,26.27
2019-05-20T10:08:07.737Z,24.98
2019-05-20T10:10:37.332Z,23.73
2019-05-20T10:13:08.020Z,23.62
2019-05-20T10:15:38.155Z,22.82
2019-05-20T10:18:07.705Z,27.67
2019-05-20T10:20:38.236Z,27.55
2019-05-20T10:23:07.808Z,26.57
2019-05-20T10:25:37.245Z,25.15
2019-05-20T10:28:06.791Z,26.25
2019-05-20T10:30:36.238Z,27.65
2019-05-20T10:33:09.414Z,29.48
2019-05-20T10:35:36.789Z,24.72
2019-05-20T10:38:06.283Z,29.55
2019-05-20T10:40:35.808Z,31.27
2019-05-20T10:43:05.359Z,29.95
2019-05-20T10:45:34.961Z,29.65
2019-05-20T10:48:08.408Z,27.22
2019-05-20T10:50:35.705Z,28.35
2019-05-20T10:53:05.261Z,29.07
2019-05-20T10:55:35.789Z,28.75
2019-05-20T10:58:05.502Z,28.15
2019-05-20T11:00:35.139Z,29.45
2019-05-20T11:03:04.682Z,29.07
2019-05-20T11:05:34.134Z,32.90
2019-05-20T11:08:03.613Z,28.87
2019-05-20T11:10:33.065Z,29.95
2019-05-20T11:13:03.720Z,33.78
2019-05-20T11:15:33.243Z,29.63
2019-05-20T11:18:02.726Z,33.00
2019-05-20T11:20:32.245Z,32.03
2019-05-20T11:23:01.729Z,29.35
2019-05-20T11:25:31.277Z,30.08
2019-05-20T11:28:00.982Z,32.93
2019-05-20T11:32:59.486Z,29.02
2019-05-20T11:35:28.954Z,29.00
2019-05-20T11:37:58.426Z,31.00
2019-05-20T11:40:27.881Z,34.27
2019-05-20T11:42:57.353Z,29.85
2019-05-20T11:45:26.989Z,30.72
2019-05-20T11:47:56.473Z,26.25
2019-05-20T11:50:25.921Z,30.23
2019-05-20T11:52:55.401Z,31.68
2019-05-20T11:55:25.267Z,31.68
2019-05-20T12:00:24.144Z,30.25
2019-05-20T12:02:53.699Z,32.98
2019-05-20T12:05:23.247Z,35.10
2019-05-20T12:07:52.702Z,37.17
2019-05-20T12:10:22.294Z,35.30
2019-05-20T12:12:51.900Z,32.23
2019-05-20T12:15:21.520Z,33.13
2019-05-20T12:17:50.998Z,34.50
2019-05-20T12:20:20.795Z,33.60
2019-05-20T12:22:50.277Z,33.00
2019-05-20T12:25:19.889Z,31.68
2019-05-20T12:27:49.379Z,34.80
2019-05-20T12:30:19.828Z,34.92
2019-05-20T12:32:49.261Z,35.17
2019-05-20T12:35:18.879Z,32.23
2019-05-20T12:37:48.338Z,31.48
2019-05-20T12:40:18.149Z,30.45
2019-05-20T12:42:47.609Z,28.05
2019-05-20T12:45:17.426Z,29.18
2019-05-20T12:47:46.881Z,27.60
2019-05-20T12:50:16.794Z,28.20
2019-05-20T12:55:15.194Z,31.45
2019-05-20T12:57:44.723Z,27.27
2019-05-20T13:00:15.302Z,30.45
2019-05-20T13:02:44.842Z,28.00
2019-05-20T13:05:15.153Z,35.13
2019-05-20T13:07:44.689Z,28.27
2019-05-20T13:10:28.784Z,28.50
2019-05-20T13:12:45.487Z,28.87
2019-05-20T13:15:15.503Z,27.90
2019-05-20T13:22:43.694Z,36.75
2019-05-20T13:25:13.346Z,36.13
2019-05-20T13:27:42.806Z,33.23
2019-05-20T13:30:14.332Z,39.40
2019-05-20T13:32:43.853Z,41.33
2019-05-20T13:35:13.869Z,47.48
2019-05-20T13:37:44.395Z,39.48
2019-05-20T13:40:14.111Z,37.55
2019-05-20T13:42:43.834Z,36.88
2019-05-20T13:45:14.393Z,38.53
2019-05-20T13:47:43.805Z,35.20
2019-05-20T13:50:13.817Z,39.35
2019-05-20T13:55:12.284Z,38.67
2019-05-20T13:57:41.814Z,37.50
2019-05-20T14:00:11.726Z,39.88
2019-05-20T14:02:41.177Z,36.13
2019-05-20T14:05:11.258Z,35.15
2019-05-20T14:10:09.865Z,43.25
2019-05-20T14:15:08.270Z,46.50
2019-05-20T14:17:37.726Z,52.38
2019-05-20T14:20:07.551Z,48.80
2019-05-20T14:22:37.006Z,54.00
2019-05-20T14:25:08.019Z,56.18
2019-05-20T14:27:37.502Z,61.33
2019-05-20T14:30:10.221Z,62.62
2019-05-20T14:32:39.656Z,60.60
2019-05-20T14:35:09.645Z,62.90
2019-05-20T14:37:39.170Z,62.00
2019-05-20T14:40:08.992Z,64.00
2019-05-20T14:42:38.536Z,68.10
2019-05-20T14:45:08.297Z,65.72
2019-05-20T14:47:38.841Z,68.70
2019-05-20T14:50:09.814Z,68.90
2019-05-20T14:55:08.161Z,70.65
2019-05-20T14:57:37.593Z,73.12
2019-05-20T15:00:08.423Z,65.12
2019-05-20T15:02:37.943Z,69.97
2019-05-20T15:05:08.830Z,67.22
2019-05-20T15:07:38.351Z,67.32
2019-05-20T15:10:09.365Z,68.62
2019-05-20T15:12:38.831Z,68.40
2019-05-20T15:15:10.278Z,65.52
2019-05-20T15:17:39.764Z,62.83
2019-05-20T15:20:09.788Z,61.37
2019-05-20T15:22:39.322Z,62.90
2019-05-20T15:25:09.889Z,58.28
2019-05-20T15:27:39.437Z,56.90
2019-05-20T15:30:09.521Z,63.28
2019-05-20T15:32:39.012Z,64.40
2019-05-20T15:35:09.738Z,62.98
2019-05-20T15:37:39.181Z,62.67
2019-05-20T15:40:09.177Z,55.08
2019-05-20T15:45:08.278Z,54.75
2019-05-20T15:47:50.579Z,57.78
2019-05-20T15:50:20.422Z,62.38
2019-05-20T15:52:49.939Z,59.35
2019-05-20T15:55:19.398Z,63.25
2019-05-20T15:57:48.946Z,61.00
2019-05-20T16:00:18.708Z,58.90
2019-05-20T16:02:48.185Z,67.17
2019-05-20T16:05:17.636Z,65.35
2019-05-20T16:07:47.113Z,71.02
2019-05-20T16:10:16.781Z,81.72
2019-05-20T16:12:46.381Z,61.37
2019-05-20T16:15:16.097Z,70.30
2019-05-20T16:17:48.231Z,67.27
2019-05-20T16:20:17.058Z,73.10
2019-05-20T16:22:46.533Z,71.37
2019-05-20T16:25:16.061Z,73.07
2019-05-20T16:27:45.606Z,75.15
2019-05-20T16:30:15.397Z,80.95
2019-05-20T16:32:44.954Z,73.33
2019-05-20T16:35:14.770Z,89.92
2019-05-20T16:37:44.340Z,78.40
2019-05-20T16:40:14.249Z,68.92
2019-05-20T16:42:43.727Z,70.17
2019-05-20T16:45:13.718Z,72.62
2019-05-20T16:50:12.186Z,66.47
2019-05-20T16:52:41.734Z,65.62
2019-05-20T16:55:11.445Z,55.63
2019-05-20T16:57:40.973Z,54.60
2019-05-20T17:00:29.744Z,59.35
2019-05-20T17:02:44.109Z,53.40
2019-05-20T17:05:13.702Z,57.40
2019-05-20T17:07:43.179Z,51.75
2019-05-20T17:10:13.137Z,54.88
2019-05-20T17:15:11.444Z,59.15
2019-05-20T17:17:40.994Z,56.35
2019-05-20T17:20:10.895Z,60.30
2019-05-20T17:25:09.363Z,59.50
2019-05-20T17:27:38.905Z,62.93
2019-05-20T17:30:08.710Z,61.77
2019-05-20T17:32:38.331Z,75.83
2019-05-20T17:35:07.987Z,69.05
2019-05-20T17:37:37.529Z,75.70
2019-05-20T17:40:08.786Z,77.90
2019-05-20T17:42:39.403Z,79.60
2019-05-20T17:45:09.998Z,83.82
2019-05-20T17:47:39.611Z,81.12
2019-05-20T17:50:09.805Z,84.15
2019-05-20T17:52:39.420Z,84.15
2019-05-20T17:55:09.210Z,93.03
2019-05-20T17:57:38.731Z,78.25
2019-05-20T18:00:11.922Z,86.70
2019-05-20T18:02:41.368Z,77.90
2019-05-20T18:05:14.513Z,76.97
2019-05-20T18:07:42.483Z,75.65
2019-05-20T18:10:12.145Z,77.95
2019-05-20T18:12:41.617Z,77.37
2019-05-20T18:15:11.461Z,86.40
2019-05-20T18:17:40.905Z,78.00
2019-05-20T18:20:10.517Z,81.53
2019-05-20T18:22:40.043Z,68.65
2019-05-20T18:25:09.876Z,85.60
2019-05-20T18:27:39.521Z,73.00
2019-05-20T18:30:09.448Z,72.47
2019-05-20T18:35:09.326Z,81.93
2019-05-20T18:37:38.765Z,76.02
2019-05-20T18:40:14.479Z,74.05
2019-05-20T18:42:40.904Z,84.62
2019-05-20T18:45:10.889Z,83.85
2019-05-20T18:50:09.527Z,79.25
2019-05-20T18:55:07.649Z,83.58
2019-05-20T18:57:37.170Z,81.97
2019-05-20T19:00:11.318Z,82.90
2019-05-20T19:02:42.479Z,78.87
2019-05-20T19:05:12.491Z,80.90
2019-05-20T19:07:42.225Z,87.35
2019-05-20T19:10:12.014Z,76.53
2019-05-20T19:12:41.707Z,75.65
2019-05-20T19:15:12.401Z,80.30
2019-05-20T19:17:41.865Z,78.78
2019-05-20T19:20:11.402Z,84.87
2019-05-20T19:22:40.857Z,71.30
2019-05-20T19:25:10.682Z,68.87
2019-05-20T19:27:40.163Z,70.78
2019-05-20T19:30:10.191Z,75.30
2019-05-20T19:32:39.658Z,75.67
2019-05-20T19:35:09.884Z,77.92
2019-05-20T19:37:39.454Z,72.30
2019-05-20T19:40:10.545Z,91.35
2019-05-20T19:42:40.207Z,85.83
2019-05-20T19:45:10.242Z,96.90
2019-05-20T19:47:39.755Z,85.20
2019-05-20T19:50:09.766Z,86.02
2019-05-20T19:52:39.396Z,74.62
2019-05-20T19:55:10.080Z,67.87
2019-05-20T19:57:39.545Z,73.20
2019-05-20T20:00:09.671Z,71.17
2019-05-20T20:02:39.189Z,67.42
2019-05-20T20:05:08.731Z,73.22
2019-05-20T20:07:38.186Z,81.30
2019-05-20T20:10:08.204Z,66.67
2019-05-20T20:12:37.730Z,61.00
2019-05-20T20:15:25.809Z,66.35
2019-05-20T20:17:55.265Z,72.53
2019-05-20T20:20:24.750Z,69.07
2019-05-20T20:22:54.209Z,78.12
2019-05-20T20:25:23.825Z,73.72
2019-05-20T20:27:53.289Z,85.80
2019-05-20T20:30:22.770Z,90.75
2019-05-20T20:32:52.217Z,94.87
2019-05-20T20:35:21.761Z,92.80
2019-05-20T20:37:51.216Z,94.87
2019-05-20T20:40:20.688Z,93.37
2019-05-20T20:42:50.151Z,97.30
2019-05-20T20:45:19.637Z,111.30
2019-05-20T20:47:49.098Z,109.17
2019-05-20T20:50:18.648Z,121.28
2019-05-20T20:52:48.105Z,107.22
2019-05-20T20:55:17.602Z,114.75
2019-05-20T20:57:47.057Z,105.52
2019-05-20T21:00:17.005Z,121.90
2019-05-20T21:05:16.877Z,116.67
2019-05-20T21:07:46.354Z,116.03
2019-05-20T21:10:17.346Z,109.20
2019-05-20T21:12:46.833Z,113.97
2019-05-20T21:15:16.382Z,127.70
2019-05-20T21:17:45.868Z,130.43
2019-05-20T21:20:15.465Z,116.30
2019-05-20T21:22:44.941Z,128.68
2019-05-20T21:25:14.557Z,123.05
2019-05-20T21:27:44.982Z,115.60
2019-05-20T21:30:14.894Z,124.90
2019-05-20T21:32:44.377Z,120.82
2019-05-20T21:35:13.906Z,122.70
2019-05-20T21:37:43.381Z,112.75
2019-05-20T21:40:12.905Z,123.53
2019-05-20T21:42:42.389Z,135.22
2019-05-20T21:45:11.986Z,127.75
2019-05-20T21:47:44.585Z,107.97
2019-05-20T21:50:12.621Z,121.13
2019-05-20T21:52:42.103Z,126.38
2019-05-20T21:55:11.626Z,138.10
2019-05-20T21:57:41.107Z,139.55
2019-05-20T22:00:12.751Z,138.95
2019-05-20T22:02:43.850Z,136.25
2019-05-20T22:05:13.370Z,139.22
2019-05-20T22:07:42.853Z,146.87
2019-05-20T22:10:12.850Z,136.03
2019-05-20T22:12:42.325Z,151.02
2019-05-20T22:15:11.934Z,123.87
2019-05-20T22:17:41.414Z,152.15
2019-05-20T22:20:11.314Z,167.00
2019-05-20T22:25:20.014Z,151.97
2019-05-20T22:27:49.508Z,150.18
2019-05-20T22:30:19.103Z,144.22
2019-05-20T22:32:48.586Z,154.38
2019-05-20T22:35:18.037Z,147.53
2019-05-20T22:37:47.525Z,163.12
2019-05-20T22:40:17.054Z,164.15
2019-05-20T22:42:46.531Z,158.65
2019-05-20T22:45:16.049Z,158.52
2019-05-20T22:47:45.534Z,150.80
2019-05-20T22:50:15.066Z,166.53
2019-05-20T22:52:44.617Z,127.82
2019-05-20T22:55:14.145Z,151.32
2019-05-20T22:57:43.633Z,141.32
2019-05-20T23:00:14.660Z,123.70
2019-05-20T23:05:13.170Z,118.00
2019-05-20T23:07:42.653Z,116.73
2019-05-20T23:10:13.722Z,103.40
2019-05-20T23:12:43.244Z,113.60
2019-05-20T23:15:12.810Z,112.90
2019-05-20T23:17:42.312Z,114.67
2019-05-20T23:20:11.844Z,119.70
2019-05-20T23:22:41.323Z,98.47
2019-05-20T23:25:10.913Z,76.67
2019-05-20T23:27:40.402Z,102.38
2019-05-20T23:30:10.509Z,101.20
2019-05-20T23:32:39.985Z,92.33
2019-05-20T23:35:09.505Z,93.80
2019-05-20T23:37:39.067Z,103.12
2019-05-20T23:40:09.437Z,87.62
2019-05-20T23:42:39.873Z,88.25
2019-05-20T23:45:09.976Z,85.15
2019-05-20T23:47:39.527Z,82.97
2019-05-20T23:50:09.216Z,86.08
2019-05-20T23:52:38.701Z,84.32
2019-05-20T23:55:08.917Z,92.65
2019-05-20T23:57:38.374Z,91.02
